sensor_id;sensor_type;location;lat;lon;timestamp;temperature;humidity
53410;DHT22;66590;50.734;4.246;2023-03-13T00:01:28;11.20;99.90
53410;DHT22;66590;50.734;4.246;2023-03-13T00:03:56;11.20;99.90
53410;DHT22;66590;50.734;4.246;2023-03-13T00:06:24;11.20;99.90
53410;DHT22;66590;50.734;4.246;2023-03-13T00:08:53;11.20;99.90
53410;DHT22;66590;50.734;4.246;2023-03-13T00:11:20;11.20;99.90
53410;DHT22;66590;50.734;4.246;2023-03-13T00:13:47;11.20;99.90
53410;DHT22;66590;50.734;4.246;2023-03-13T00:16:15;11.20;99.90
53410;DHT22;66590;50.734;4.246;2023-03-13T00:18:48;11.20;99.90
53410;DHT22;66590;50.734;4.246;2023-03-13T00:21:16;11.20;99.90
53410;DHT22;66590;50.734;4.246;2023-03-13T00:23:45;11.30;99.90
53410;DHT22;66590;50.734;4.246;2023-03-13T00:26:13;11.10;99.90
53410;DHT22;66590;50.734;4.246;2023-03-13T00:28:41;11.00;99.90
53410;DHT22;66590;50.734;4.246;2023-03-13T00:31:12;11.10;99.90
53410;DHT22;66590;50.734;4.246;2023-03-13T00:33:41;11.30;99.90
53410;DHT22;66590;50.734;4.246;2023-03-13T00:36:11;11.30;99.90
53410;DHT22;66590;50.734;4.246;2023-03-13T00:38:39;11.30;99.90
53410;DHT22;66590;50.734;4.246;2023-03-13T00:41:08;11.20;99.90
53410;DHT22;66590;50.734;4.246;2023-03-13T00:43:35;11.20;99.90
53410;DHT22;66590;50.734;4.246;2023-03-13T00:46:02;11.10;99.90
53410;DHT22;66590;50.734;4.246;2023-03-13T00:48:29;11.20;99.90
53410;DHT22;66590;50.734;4.246;2023-03-13T00:50:57;11.20;99.90
53410;DHT22;66590;50.734;4.246;2023-03-13T00:53:25;11.20;99.90
53410;DHT22;66590;50.734;4.246;2023-03-13T00:55:54;11.30;99.90
53410;DHT22;66590;50.734;4.246;2023-03-13T00:58:22;11.30;99.90
53410;DHT22;66590;50.734;4.246;2023-03-13T01:00:50;11.30;99.90
53410;DHT22;66590;50.734;4.246;2023-03-13T01:03:18;11.40;99.90
53410;DHT22;66590;50.734;4.246;2023-03-13T01:05:45;11.50;99.90
53410;DHT22;66590;50.734;4.246;2023-03-13T01:08:20;11.60;99.90
53410;DHT22;66590;50.734;4.246;2023-03-13T01:10:49;11.40;99.90
53410;DHT22;66590;50.734;4.246;2023-03-13T01:13:16;11.50;99.90
53410;DHT22;66590;50.734;4.246;2023-03-13T01:15:43;11.50;99.90
53410;DHT22;66590;50.734;4.246;2023-03-13T01:18:10;11.60;99.90
53410;DHT22;66590;50.734;4.246;2023-03-13T01:20:37;11.70;99.90
53410;DHT22;66590;50.734;4.246;2023-03-13T01:23:04;11.80;99.90
53410;DHT22;66590;50.734;4.246;2023-03-13T01:25:35;11.70;99.90
53410;DHT22;66590;50.734;4.246;2023-03-13T01:28:03;11.60;99.90
53410;DHT22;66590;50.734;4.246;2023-03-13T01:30:30;11.70;99.90
53410;DHT22;66590;50.734;4.246;2023-03-13T01:32:58;11.80;99.90
53410;DHT22;66590;50.734;4.246;2023-03-13T01:35:25;11.80;99.90
53410;DHT22;66590;50.734;4.246;2023-03-13T01:37:52;11.90;99.90
53410;DHT22;66590;50.734;4.246;2023-03-13T01:40:19;12.00;99.90
53410;DHT22;66590;50.734;4.246;2023-03-13T01:42:51;11.90;99.90
53410;DHT22;66590;50.734;4.246;2023-03-13T01:45:51;11.90;99.90
53410;DHT22;66590;50.734;4.246;2023-03-13T01:48:20;11.90;99.90
53410;DHT22;66590;50.734;4.246;2023-03-13T01:50:47;11.90;99.90
53410;DHT22;66590;50.734;4.246;2023-03-13T01:53:15;11.90;99.90
53410;DHT22;66590;50.734;4.246;2023-03-13T01:55:42;12.10;99.90
53410;DHT22;66590;50.734;4.246;2023-03-13T01:58:09;12.00;99.90
53410;DHT22;66590;50.734;4.246;2023-03-13T02:00:36;12.00;99.90
53410;DHT22;66590;50.734;4.246;2023-03-13T02:03:08;12.00;99.90
53410;DHT22;66590;50.734;4.246;2023-03-13T02:05:37;12.00;99.90
53410;DHT22;66590;50.734;4.246;2023-03-13T02:08:09;12.00;99.90
53410;DHT22;66590;50.734;4.246;2023-03-13T02:10:43;12.10;99.90
53410;DHT22;66590;50.734;4.246;2023-03-13T02:13:15;12.10;99.90
53410;DHT22;66590;50.734;4.246;2023-03-13T02:15:43;12.10;99.90
53410;DHT22;66590;50.734;4.246;2023-03-13T02:18:13;12.30;99.90
53410;DHT22;66590;50.734;4.246;2023-03-13T02:20:41;12.40;99.90
53410;DHT22;66590;50.734;4.246;2023-03-13T02:23:13;12.40;99.90
53410;DHT22;66590;50.734;4.246;2023-03-13T02:25:48;12.50;99.90
53410;DHT22;66590;50.734;4.246;2023-03-13T02:28:18;12.40;99.90
53410;DHT22;66590;50.734;4.246;2023-03-13T02:30:47;12.50;99.90
53410;DHT22;66590;50.734;4.246;2023-03-13T02:33:17;12.50;99.90
53410;DHT22;66590;50.734;4.246;2023-03-13T02:35:45;12.60;99.90
53410;DHT22;66590;50.734;4.246;2023-03-13T02:38:16;12.70;99.90
53410;DHT22;66590;50.734;4.246;2023-03-13T02:40:47;12.70;99.90
53410;DHT22;66590;50.734;4.246;2023-03-13T02:43:19;12.70;99.90
53410;DHT22;66590;50.734;4.246;2023-03-13T02:46:03;12.70;99.90
53410;DHT22;66590;50.734;4.246;2023-03-13T02:48:33;12.80;99.90
53410;DHT22;66590;50.734;4.246;2023-03-13T02:51:02;12.80;99.90
53410;DHT22;66590;50.734;4.246;2023-03-13T02:53:31;12.80;99.90
53410;DHT22;66590;50.734;4.246;2023-03-13T02:56:02;12.80;99.90
53410;DHT22;66590;50.734;4.246;2023-03-13T02:58:37;12.90;99.90
53410;DHT22;66590;50.734;4.246;2023-03-13T03:01:15;12.90;99.90
53410;DHT22;66590;50.734;4.246;2023-03-13T03:03:43;12.90;99.90
53410;DHT22;66590;50.734;4.246;2023-03-13T03:06:10;13.00;99.90
53410;DHT22;66590;50.734;4.246;2023-03-13T03:08:37;13.00;99.90
53410;DHT22;66590;50.734;4.246;2023-03-13T03:11:06;13.00;99.90
53410;DHT22;66590;50.734;4.246;2023-03-13T03:13:33;13.00;99.90
53410;DHT22;66590;50.734;4.246;2023-03-13T03:16:05;12.90;99.90
53410;DHT22;66590;50.734;4.246;2023-03-13T03:18:33;13.00;99.90
53410;DHT22;66590;50.734;4.246;2023-03-13T03:21:00;13.00;99.90
53410;DHT22;66590;50.734;4.246;2023-03-13T03:23:27;13.00;99.90
53410;DHT22;66590;50.734;4.246;2023-03-13T03:25:54;13.10;99.90
53410;DHT22;66590;50.734;4.246;2023-03-13T03:28:23;13.10;99.90
53410;DHT22;66590;50.734;4.246;2023-03-13T03:30:50;13.10;99.90
53410;DHT22;66590;50.734;4.246;2023-03-13T03:33:17;13.10;99.90
53410;DHT22;66590;50.734;4.246;2023-03-13T03:35:44;13.20;99.90
53410;DHT22;66590;50.734;4.246;2023-03-13T03:38:11;13.10;99.90
53410;DHT22;66590;50.734;4.246;2023-03-13T03:40:38;13.20;99.90
53410;DHT22;66590;50.734;4.246;2023-03-13T03:43:05;13.20;99.90
53410;DHT22;66590;50.734;4.246;2023-03-13T03:45:34;13.20;99.90
53410;DHT22;66590;50.734;4.246;2023-03-13T03:48:01;13.20;99.90
53410;DHT22;66590;50.734;4.246;2023-03-13T03:50:28;13.30;99.90
53410;DHT22;66590;50.734;4.246;2023-03-13T03:52:55;13.20;99.90
53410;DHT22;66590;50.734;4.246;2023-03-13T03:55:22;13.20;99.90
53410;DHT22;66590;50.734;4.246;2023-03-13T03:57:49;13.20;99.90
53410;DHT22;66590;50.734;4.246;2023-03-13T04:00:16;13.20;99.90
53410;DHT22;66590;50.734;4.246;2023-03-13T04:02:45;13.20;99.90
53410;DHT22;66590;50.734;4.246;2023-03-13T04:05:12;13.20;99.90
53410;DHT22;66590;50.734;4.246;2023-03-13T04:07:39;13.30;99.90
53410;DHT22;66590;50.734;4.246;2023-03-13T04:10:07;13.30;99.90
53410;DHT22;66590;50.734;4.246;2023-03-13T04:12:34;13.20;99.90
53410;DHT22;66590;50.734;4.246;2023-03-13T04:15:01;13.30;99.90
53410;DHT22;66590;50.734;4.246;2023-03-13T04:17:28;13.40;99.90
53410;DHT22;66590;50.734;4.246;2023-03-13T04:19:57;13.40;99.90
53410;DHT22;66590;50.734;4.246;2023-03-13T04:22:24;13.40;99.90
53410;DHT22;66590;50.734;4.246;2023-03-13T04:24:51;13.40;99.90
53410;DHT22;66590;50.734;4.246;2023-03-13T04:27:19;13.40;99.90
53410;DHT22;66590;50.734;4.246;2023-03-13T04:29:46;13.30;99.90
53410;DHT22;66590;50.734;4.246;2023-03-13T04:32:13;13.30;99.90
53410;DHT22;66590;50.734;4.246;2023-03-13T04:34:40;13.30;99.90
53410;DHT22;66590;50.734;4.246;2023-03-13T04:37:08;13.40;99.90
53410;DHT22;66590;50.734;4.246;2023-03-13T04:39:36;13.40;99.90
53410;DHT22;66590;50.734;4.246;2023-03-13T04:42:03;13.40;99.90
53410;DHT22;66590;50.734;4.246;2023-03-13T04:44:30;13.40;99.90
53410;DHT22;66590;50.734;4.246;2023-03-13T04:46:58;13.40;99.90
53410;DHT22;66590;50.734;4.246;2023-03-13T04:49:25;13.40;99.90
53410;DHT22;66590;50.734;4.246;2023-03-13T04:51:52;13.40;99.90
53410;DHT22;66590;50.734;4.246;2023-03-13T04:54:21;13.40;99.90
53410;DHT22;66590;50.734;4.246;2023-03-13T04:56:48;13.50;99.90
53410;DHT22;66590;50.734;4.246;2023-03-13T04:59:15;13.50;99.90
53410;DHT22;66590;50.734;4.246;2023-03-13T05:01:42;13.50;99.90
53410;DHT22;66590;50.734;4.246;2023-03-13T05:04:10;13.40;99.90
53410;DHT22;66590;50.734;4.246;2023-03-13T05:06:37;13.50;99.90
53410;DHT22;66590;50.734;4.246;2023-03-13T05:09:04;13.50;99.90
53410;DHT22;66590;50.734;4.246;2023-03-13T05:11:39;13.50;99.90
53410;DHT22;66590;50.734;4.246;2023-03-13T05:14:06;13.50;99.90
53410;DHT22;66590;50.734;4.246;2023-03-13T05:16:33;13.50;99.90
53410;DHT22;66590;50.734;4.246;2023-03-13T05:19:00;13.50;99.90
53410;DHT22;66590;50.734;4.246;2023-03-13T05:21:27;13.50;99.90
53410;DHT22;66590;50.734;4.246;2023-03-13T05:23:54;13.50;99.90
53410;DHT22;66590;50.734;4.246;2023-03-13T05:26:21;13.50;99.90
53410;DHT22;66590;50.734;4.246;2023-03-13T05:28:50;13.50;99.90
53410;DHT22;66590;50.734;4.246;2023-03-13T05:31:17;13.50;99.90
53410;DHT22;66590;50.734;4.246;2023-03-13T05:33:44;13.60;99.90
53410;DHT22;66590;50.734;4.246;2023-03-13T05:36:11;13.60;99.90
53410;DHT22;66590;50.734;4.246;2023-03-13T05:38:39;13.50;99.90
53410;DHT22;66590;50.734;4.246;2023-03-13T05:41:06;13.50;99.90
53410;DHT22;66590;50.734;4.246;2023-03-13T05:43:33;13.60;99.90
53410;DHT22;66590;50.734;4.246;2023-03-13T05:46:01;13.60;99.90
53410;DHT22;66590;50.734;4.246;2023-03-13T05:48:28;13.60;99.90
53410;DHT22;66590;50.734;4.246;2023-03-13T05:50:55;13.60;99.90
53410;DHT22;66590;50.734;4.246;2023-03-13T05:53:22;13.60;99.90
53410;DHT22;66590;50.734;4.246;2023-03-13T05:55:49;13.60;99.90
53410;DHT22;66590;50.734;4.246;2023-03-13T05:58:16;13.60;99.90
53410;DHT22;66590;50.734;4.246;2023-03-13T06:00:43;13.70;99.90
53410;DHT22;66590;50.734;4.246;2023-03-13T06:03:12;13.80;99.90
53410;DHT22;66590;50.734;4.246;2023-03-13T06:05:43;13.70;99.90
53410;DHT22;66590;50.734;4.246;2023-03-13T06:08:10;13.60;99.90
53410;DHT22;66590;50.734;4.246;2023-03-13T06:10:36;13.70;99.90
53410;DHT22;66590;50.734;4.246;2023-03-13T06:13:03;13.60;99.90
53410;DHT22;66590;50.734;4.246;2023-03-13T06:15:50;13.60;99.90
53410;DHT22;66590;50.734;4.246;2023-03-13T06:18:19;13.60;99.90
53410;DHT22;66590;50.734;4.246;2023-03-13T06:20:47;13.70;99.90
53410;DHT22;66590;50.734;4.246;2023-03-13T06:23:14;13.70;99.90
53410;DHT22;66590;50.734;4.246;2023-03-13T06:25:46;13.70;99.90
53410;DHT22;66590;50.734;4.246;2023-03-13T06:28:13;13.60;99.90
53410;DHT22;66590;50.734;4.246;2023-03-13T06:30:40;13.70;99.90
53410;DHT22;66590;50.734;4.246;2023-03-13T06:33:07;13.60;99.90
53410;DHT22;66590;50.734;4.246;2023-03-13T06:35:39;13.70;99.90
53410;DHT22;66590;50.734;4.246;2023-03-13T06:38:21;13.70;99.90
53410;DHT22;66590;50.734;4.246;2023-03-13T06:40:48;13.70;99.90
53410;DHT22;66590;50.734;4.246;2023-03-13T06:43:16;13.80;99.90
53410;DHT22;66590;50.734;4.246;2023-03-13T06:45:42;13.70;99.90
53410;DHT22;66590;50.734;4.246;2023-03-13T06:48:09;13.80;99.90
53410;DHT22;66590;50.734;4.246;2023-03-13T06:50:38;13.70;99.90
53410;DHT22;66590;50.734;4.246;2023-03-13T06:53:06;13.70;99.90
53410;DHT22;66590;50.734;4.246;2023-03-13T06:55:33;13.80;99.90
53410;DHT22;66590;50.734;4.246;2023-03-13T06:58:00;13.90;99.90
53410;DHT22;66590;50.734;4.246;2023-03-13T07:00:27;13.80;99.90
53410;DHT22;66590;50.734;4.246;2023-03-13T07:02:54;13.90;99.90
53410;DHT22;66590;50.734;4.246;2023-03-13T07:05:21;13.90;99.90
53410;DHT22;66590;50.734;4.246;2023-03-13T07:07:49;14.00;99.90
53410;DHT22;66590;50.734;4.246;2023-03-13T07:10:17;14.00;99.90
53410;DHT22;66590;50.734;4.246;2023-03-13T07:12:44;14.00;99.90
53410;DHT22;66590;50.734;4.246;2023-03-13T07:15:11;14.00;99.90
53410;DHT22;66590;50.734;4.246;2023-03-13T07:17:38;14.00;99.90
53410;DHT22;66590;50.734;4.246;2023-03-13T07:20:06;13.90;99.90
53410;DHT22;66590;50.734;4.246;2023-03-13T07:22:36;14.00;99.90
53410;DHT22;66590;50.734;4.246;2023-03-13T07:25:05;14.00;99.90
53410;DHT22;66590;50.734;4.246;2023-03-13T07:27:32;14.00;99.90
53410;DHT22;66590;50.734;4.246;2023-03-13T07:29:59;14.10;99.90
53410;DHT22;66590;50.734;4.246;2023-03-13T07:32:30;14.00;99.90
53410;DHT22;66590;50.734;4.246;2023-03-13T07:34:59;14.10;99.90
53410;DHT22;66590;50.734;4.246;2023-03-13T07:37:27;14.00;99.90
53410;DHT22;66590;50.734;4.246;2023-03-13T07:39:53;14.00;99.90
53410;DHT22;66590;50.734;4.246;2023-03-13T07:42:22;13.90;99.90
53410;DHT22;66590;50.734;4.246;2023-03-13T07:44:49;13.90;99.90
53410;DHT22;66590;50.734;4.246;2023-03-13T07:47:16;14.00;99.90
53410;DHT22;66590;50.734;4.246;2023-03-13T07:49:43;14.00;99.90
53410;DHT22;66590;50.734;4.246;2023-03-13T07:52:11;13.90;99.90
53410;DHT22;66590;50.734;4.246;2023-03-13T07:54:38;13.80;99.90
53410;DHT22;66590;50.734;4.246;2023-03-13T07:57:05;13.90;99.90
53410;DHT22;66590;50.734;4.246;2023-03-13T07:59:34;14.00;99.90
53410;DHT22;66590;50.734;4.246;2023-03-13T08:02:02;14.10;99.90
53410;DHT22;66590;50.734;4.246;2023-03-13T08:04:29;14.10;99.90
53410;DHT22;66590;50.734;4.246;2023-03-13T08:06:56;14.10;99.90
53410;DHT22;66590;50.734;4.246;2023-03-13T08:09:23;14.10;99.90
53410;DHT22;66590;50.734;4.246;2023-03-13T08:11:50;14.00;99.90
53410;DHT22;66590;50.734;4.246;2023-03-13T08:14:18;13.90;99.90
53410;DHT22;66590;50.734;4.246;2023-03-13T08:16:46;14.00;99.90
53410;DHT22;66590;50.734;4.246;2023-03-13T08:19:13;14.00;99.90
53410;DHT22;66590;50.734;4.246;2023-03-13T08:21:40;14.00;99.90
53410;DHT22;66590;50.734;4.246;2023-03-13T08:24:09;14.00;99.90
53410;DHT22;66590;50.734;4.246;2023-03-13T08:26:40;14.00;99.90
53410;DHT22;66590;50.734;4.246;2023-03-13T08:29:08;14.10;99.90
53410;DHT22;66590;50.734;4.246;2023-03-13T08:31:37;14.10;99.90
53410;DHT22;66590;50.734;4.246;2023-03-13T08:34:06;14.20;99.90
53410;DHT22;66590;50.734;4.246;2023-03-13T08:36:35;14.10;99.90
53410;DHT22;66590;50.734;4.246;2023-03-13T08:39:08;14.10;99.90
53410;DHT22;66590;50.734;4.246;2023-03-13T08:41:36;14.20;99.90
53410;DHT22;66590;50.734;4.246;2023-03-13T08:44:04;14.20;99.90
53410;DHT22;66590;50.734;4.246;2023-03-13T08:46:32;14.40;99.90
53410;DHT22;66590;50.734;4.246;2023-03-13T08:49:00;14.50;99.90
53410;DHT22;66590;50.734;4.246;2023-03-13T08:51:29;14.50;99.90
53410;DHT22;66590;50.734;4.246;2023-03-13T08:53:56;14.60;99.90
53410;DHT22;66590;50.734;4.246;2023-03-13T08:56:25;14.70;99.90
53410;DHT22;66590;50.734;4.246;2023-03-13T08:58:54;14.60;99.90
53410;DHT22;66590;50.734;4.246;2023-03-13T09:01:24;14.60;99.90
53410;DHT22;66590;50.734;4.246;2023-03-13T09:03:52;14.60;99.90
53410;DHT22;66590;50.734;4.246;2023-03-13T09:06:19;14.60;99.90
53410;DHT22;66590;50.734;4.246;2023-03-13T09:08:48;14.70;99.90
53410;DHT22;66590;50.734;4.246;2023-03-13T09:11:17;14.80;99.90
53410;DHT22;66590;50.734;4.246;2023-03-13T09:13:45;15.00;99.90
53410;DHT22;66590;50.734;4.246;2023-03-13T09:16:14;15.20;99.90
53410;DHT22;66590;50.734;4.246;2023-03-13T09:18:42;15.20;99.90
53410;DHT22;66590;50.734;4.246;2023-03-13T09:21:13;15.30;99.90
53410;DHT22;66590;50.734;4.246;2023-03-13T09:23:41;15.40;99.90
53410;DHT22;66590;50.734;4.246;2023-03-13T09:26:10;15.70;99.90
53410;DHT22;66590;50.734;4.246;2023-03-13T09:28:37;15.80;99.90
53410;DHT22;66590;50.734;4.246;2023-03-13T09:31:09;15.50;99.90
53410;DHT22;66590;50.734;4.246;2023-03-13T09:33:37;15.40;99.90
53410;DHT22;66590;50.734;4.246;2023-03-13T09:36:04;15.30;99.90
53410;DHT22;66590;50.734;4.246;2023-03-13T09:38:32;15.10;99.90
53410;DHT22;66590;50.734;4.246;2023-03-13T09:41:03;15.10;99.90
53410;DHT22;66590;50.734;4.246;2023-03-13T09:43:39;15.10;99.90
53410;DHT22;66590;50.734;4.246;2023-03-13T09:46:14;15.20;99.90
53410;DHT22;66590;50.734;4.246;2023-03-13T09:48:45;15.30;99.90
53410;DHT22;66590;50.734;4.246;2023-03-13T09:51:17;15.30;99.90
53410;DHT22;66590;50.734;4.246;2023-03-13T09:53:47;15.40;99.90
53410;DHT22;66590;50.734;4.246;2023-03-13T09:56:18;15.60;99.90
53410;DHT22;66590;50.734;4.246;2023-03-13T09:58:52;15.80;99.90
53410;DHT22;66590;50.734;4.246;2023-03-13T10:01:24;15.70;99.90
53410;DHT22;66590;50.734;4.246;2023-03-13T10:04:03;15.80;99.90
53410;DHT22;66590;50.734;4.246;2023-03-13T10:06:34;16.00;99.90
53410;DHT22;66590;50.734;4.246;2023-03-13T10:09:09;16.10;99.90
53410;DHT22;66590;50.734;4.246;2023-03-13T10:11:43;16.10;99.90
53410;DHT22;66590;50.734;4.246;2023-03-13T10:14:17;16.10;99.90
53410;DHT22;66590;50.734;4.246;2023-03-13T10:16:48;15.90;99.90
53410;DHT22;66590;50.734;4.246;2023-03-13T10:19:19;16.00;99.90
53410;DHT22;66590;50.734;4.246;2023-03-13T10:21:50;15.70;99.90
53410;DHT22;66590;50.734;4.246;2023-03-13T10:24:32;15.50;99.90
53410;DHT22;66590;50.734;4.246;2023-03-13T10:27:00;15.50;99.90
53410;DHT22;66590;50.734;4.246;2023-03-13T10:29:29;15.40;99.90
53410;DHT22;66590;50.734;4.246;2023-03-13T10:31:57;15.30;99.90
53410;DHT22;66590;50.734;4.246;2023-03-13T10:34:26;15.40;99.90
53410;DHT22;66590;50.734;4.246;2023-03-13T10:36:57;15.60;99.90
53410;DHT22;66590;50.734;4.246;2023-03-13T10:39:26;15.90;99.90
53410;DHT22;66590;50.734;4.246;2023-03-13T10:41:57;16.20;99.90
53410;DHT22;66590;50.734;4.246;2023-03-13T10:44:31;16.00;99.90
53410;DHT22;66590;50.734;4.246;2023-03-13T10:47:00;16.00;99.90
53410;DHT22;66590;50.734;4.246;2023-03-13T10:49:28;16.20;99.90
53410;DHT22;66590;50.734;4.246;2023-03-13T10:52:00;16.50;99.90
53410;DHT22;66590;50.734;4.246;2023-03-13T10:54:29;16.50;99.90
53410;DHT22;66590;50.734;4.246;2023-03-13T10:57:23;16.60;99.90
53410;DHT22;66590;50.734;4.246;2023-03-13T10:59:54;16.40;99.90
53410;DHT22;66590;50.734;4.246;2023-03-13T11:02:24;16.50;99.90
53410;DHT22;66590;50.734;4.246;2023-03-13T11:04:52;16.30;99.90
53410;DHT22;66590;50.734;4.246;2023-03-13T11:07:24;16.30;99.90
53410;DHT22;66590;50.734;4.246;2023-03-13T11:09:58;16.20;99.90
53410;DHT22;66590;50.734;4.246;2023-03-13T11:12:25;16.30;99.90
53410;DHT22;66590;50.734;4.246;2023-03-13T11:14:58;16.60;99.90
53410;DHT22;66590;50.734;4.246;2023-03-13T11:17:31;16.70;99.90
53410;DHT22;66590;50.734;4.246;2023-03-13T11:20:20;16.90;99.90
53410;DHT22;66590;50.734;4.246;2023-03-13T11:22:55;17.00;99.90
53410;DHT22;66590;50.734;4.246;2023-03-13T11:25:30;16.70;99.90
53410;DHT22;66590;50.734;4.246;2023-03-13T11:31:04;16.40;99.90
53410;DHT22;66590;50.734;4.246;2023-03-13T11:33:41;16.40;99.90
53410;DHT22;66590;50.734;4.246;2023-03-13T11:36:16;16.40;99.90
53410;DHT22;66590;50.734;4.246;2023-03-13T11:38:47;16.20;99.90
53410;DHT22;66590;50.734;4.246;2023-03-13T11:41:29;16.20;99.90
53410;DHT22;66590;50.734;4.246;2023-03-13T11:44:15;16.20;99.90
53410;DHT22;66590;50.734;4.246;2023-03-13T11:46:58;16.30;99.90
53410;DHT22;66590;50.734;4.246;2023-03-13T11:49:56;16.40;99.90
53410;DHT22;66590;50.734;4.246;2023-03-13T11:52:39;16.40;99.90
53410;DHT22;66590;50.734;4.246;2023-03-13T11:55:24;16.50;99.90
53410;DHT22;66590;50.734;4.246;2023-03-13T11:58:02;16.60;99.90
53410;DHT22;66590;50.734;4.246;2023-03-13T12:00:34;16.60;99.90
53410;DHT22;66590;50.734;4.246;2023-03-13T12:03:10;16.60;99.90
53410;DHT22;66590;50.734;4.246;2023-03-13T12:05:44;16.70;99.90
53410;DHT22;66590;50.734;4.246;2023-03-13T12:08:17;16.70;99.90
53410;DHT22;66590;50.734;4.246;2023-03-13T12:10:48;16.70;99.90
53410;DHT22;66590;50.734;4.246;2023-03-13T12:13:20;16.80;99.90
53410;DHT22;66590;50.734;4.246;2023-03-13T12:15:52;17.00;99.90
53410;DHT22;66590;50.734;4.246;2023-03-13T12:18:25;17.30;99.90
53410;DHT22;66590;50.734;4.246;2023-03-13T12:20:59;17.30;99.90
53410;DHT22;66590;50.734;4.246;2023-03-13T12:23:36;17.20;99.90
53410;DHT22;66590;50.734;4.246;2023-03-13T12:26:09;17.00;99.90
53410;DHT22;66590;50.734;4.246;2023-03-13T12:28:42;17.30;99.90
53410;DHT22;66590;50.734;4.246;2023-03-13T12:31:18;17.80;99.90
53410;DHT22;66590;50.734;4.246;2023-03-13T12:33:54;17.90;99.90
53410;DHT22;66590;50.734;4.246;2023-03-13T12:36:27;17.70;99.90
53410;DHT22;66590;50.734;4.246;2023-03-13T12:38:59;17.50;99.90
53410;DHT22;66590;50.734;4.246;2023-03-13T12:41:33;17.40;99.90
53410;DHT22;66590;50.734;4.246;2023-03-13T12:44:01;17.00;99.90
53410;DHT22;66590;50.734;4.246;2023-03-13T12:46:39;17.20;99.90
53410;DHT22;66590;50.734;4.246;2023-03-13T12:49:39;16.90;99.90
53410;DHT22;66590;50.734;4.246;2023-03-13T12:52:31;16.90;99.90
53410;DHT22;66590;50.734;4.246;2023-03-13T12:55:20;16.90;99.90
53410;DHT22;66590;50.734;4.246;2023-03-13T12:58:11;17.00;99.90
53410;DHT22;66590;50.734;4.246;2023-03-13T13:00:41;17.30;99.90
53410;DHT22;66590;50.734;4.246;2023-03-13T13:03:21;17.20;99.90
53410;DHT22;66590;50.734;4.246;2023-03-13T13:06:04;17.00;99.90
53410;DHT22;66590;50.734;4.246;2023-03-13T13:08:35;16.80;99.90
53410;DHT22;66590;50.734;4.246;2023-03-13T13:11:34;16.70;99.90
53410;DHT22;66590;50.734;4.246;2023-03-13T13:14:02;16.90;99.90
53410;DHT22;66590;50.734;4.246;2023-03-13T13:16:32;16.90;99.90
53410;DHT22;66590;50.734;4.246;2023-03-13T13:19:44;17.10;99.90
53410;DHT22;66590;50.734;4.246;2023-03-13T13:22:47;17.10;99.90
53410;DHT22;66590;50.734;4.246;2023-03-13T13:25:34;17.00;99.90
53410;DHT22;66590;50.734;4.246;2023-03-13T13:28:22;17.10;99.90
53410;DHT22;66590;50.734;4.246;2023-03-13T13:30:51;17.20;99.90
53410;DHT22;66590;50.734;4.246;2023-03-13T13:33:38;17.00;99.90
53410;DHT22;66590;50.734;4.246;2023-03-13T13:36:28;16.90;99.90
53410;DHT22;66590;50.734;4.246;2023-03-13T13:38:57;17.00;99.90
53410;DHT22;66590;50.734;4.246;2023-03-13T13:41:35;16.90;99.90
53410;DHT22;66590;50.734;4.246;2023-03-13T13:44:25;16.80;99.90
53410;DHT22;66590;50.734;4.246;2023-03-13T13:46:53;16.90;99.90
53410;DHT22;66590;50.734;4.246;2023-03-13T13:49:22;17.10;99.90
53410;DHT22;66590;50.734;4.246;2023-03-13T13:54:59;17.60;99.90
53410;DHT22;66590;50.734;4.246;2023-03-13T13:57:30;17.60;99.90
53410;DHT22;66590;50.734;4.246;2023-03-13T14:00:00;17.90;99.90
53410;DHT22;66590;50.734;4.246;2023-03-13T14:02:31;18.00;99.90
53410;DHT22;66590;50.734;4.246;2023-03-13T14:05:05;18.20;99.90
53410;DHT22;66590;50.734;4.246;2023-03-13T14:07:49;18.10;99.90
53410;DHT22;66590;50.734;4.246;2023-03-13T14:10:31;17.90;99.90
53410;DHT22;66590;50.734;4.246;2023-03-13T14:13:01;17.60;99.90
53410;DHT22;66590;50.734;4.246;2023-03-13T14:15:29;17.30;99.90
53410;DHT22;66590;50.734;4.246;2023-03-13T14:17:58;17.40;99.90
53410;DHT22;66590;50.734;4.246;2023-03-13T14:20:29;17.60;99.90
53410;DHT22;66590;50.734;4.246;2023-03-13T14:22:58;17.70;99.90
53410;DHT22;66590;50.734;4.246;2023-03-13T14:25:40;17.60;99.90
53410;DHT22;66590;50.734;4.246;2023-03-13T14:28:15;17.60;99.90
53410;DHT22;66590;50.734;4.246;2023-03-13T14:30:43;17.70;99.90
53410;DHT22;66590;50.734;4.246;2023-03-13T14:33:10;17.50;99.90
53410;DHT22;66590;50.734;4.246;2023-03-13T14:35:38;17.40;99.90
53410;DHT22;66590;50.734;4.246;2023-03-13T14:38:06;17.30;99.90
53410;DHT22;66590;50.734;4.246;2023-03-13T14:40:36;17.50;99.90
53410;DHT22;66590;50.734;4.246;2023-03-13T14:43:18;17.70;99.90
53410;DHT22;66590;50.734;4.246;2023-03-13T14:45:46;17.40;99.90
53410;DHT22;66590;50.734;4.246;2023-03-13T14:48:19;17.30;99.90
53410;DHT22;66590;50.734;4.246;2023-03-13T14:50:48;17.40;99.90
53410;DHT22;66590;50.734;4.246;2023-03-13T14:53:17;17.40;99.90
53410;DHT22;66590;50.734;4.246;2023-03-13T14:55:47;17.50;99.90
53410;DHT22;66590;50.734;4.246;2023-03-13T14:58:26;17.50;99.90
53410;DHT22;66590;50.734;4.246;2023-03-13T15:00:54;17.50;99.90
53410;DHT22;66590;50.734;4.246;2023-03-13T15:03:27;17.30;99.90
53410;DHT22;66590;50.734;4.246;2023-03-13T15:06:15;17.40;99.90
53410;DHT22;66590;50.734;4.246;2023-03-13T15:08:43;17.60;99.90
53410;DHT22;66590;50.734;4.246;2023-03-13T15:11:26;17.80;99.90
53410;DHT22;66590;50.734;4.246;2023-03-13T15:13:54;17.80;99.90
53410;DHT22;66590;50.734;4.246;2023-03-13T15:16:23;17.60;99.90
53410;DHT22;66590;50.734;4.246;2023-03-13T15:18:52;17.60;99.90
53410;DHT22;66590;50.734;4.246;2023-03-13T15:21:24;17.70;99.90
53410;DHT22;66590;50.734;4.246;2023-03-13T15:23:54;17.70;99.90
53410;DHT22;66590;50.734;4.246;2023-03-13T15:26:23;17.70;99.90
53410;DHT22;66590;50.734;4.246;2023-03-13T15:28:50;17.50;99.90
53410;DHT22;66590;50.734;4.246;2023-03-13T15:31:19;17.40;99.90
53410;DHT22;66590;50.734;4.246;2023-03-13T15:33:51;17.40;99.90
53410;DHT22;66590;50.734;4.246;2023-03-13T15:36:20;17.10;99.90
53410;DHT22;66590;50.734;4.246;2023-03-13T15:38:47;16.90;99.90
53410;DHT22;66590;50.734;4.246;2023-03-13T15:41:14;17.00;99.90
53410;DHT22;66590;50.734;4.246;2023-03-13T15:43:42;17.00;99.90
53410;DHT22;66590;50.734;4.246;2023-03-13T15:46:12;17.00;99.90
53410;DHT22;66590;50.734;4.246;2023-03-13T15:48:40;17.20;99.90
53410;DHT22;66590;50.734;4.246;2023-03-13T15:51:09;17.40;99.90
53410;DHT22;66590;50.734;4.246;2023-03-13T15:53:37;17.30;99.90
53410;DHT22;66590;50.734;4.246;2023-03-13T15:56:12;17.40;99.90
53410;DHT22;66590;50.734;4.246;2023-03-13T15:58:40;17.20;99.90